1964 Tropical Cyclone BERTHA:BERTHE (1964027S14151)


IBTrACS version v04r00. Visit IBTrACS website for data access.
Please direct all questions to the IBTrACS Q and A forum

Storm track - Intensity - Wind Radii - Intensity Data - Source Data - All data

Summary Information

Storm ID 1964027S14151
Start Jan 26 23Z
Max Intensity 45 kt (Jan 29 00Z), 992 mb (Jan 28 18Z)
End Feb 2 00Z
ATCF IDs ,SH121964
Track status Best track data.

Storm track plot

Map of storm track

Intensity plots

Map of storm track

Radial wind information

No radial wind information for this storm


Position and Intensity Table

BASIN ISO_TIME_________ NATURE LAT LON WMO PRES BOM PRES DS824 WIND DS824 PRES NEUMANN WIND NEUMANN PRES
degrees north degrees east mb mb kts mb kts mb
SP 1964-01-26 23:00:00 NR -14.05 151.30 1000 1000
SP 1964-01-27 00:00:00 TS -14.06 151.41 999 30 1000 30 1000
SP 03:00:00 TS -14.12 151.67 998 31 999 32 999
SP 06:00:00 TS -14.18 151.93 997 32 998 35 998
SP 09:00:00 TS -14.24 152.18 996 33 997 35 997
SP 11:00:00 TS -14.29 152.33 996 996 34 996 35 996
SP 12:00:00 TS -14.31 152.41 995 35 996 35 996
SP 15:00:00 TS -14.36 152.60 995 36 995 37 995
SP 18:00:00 TS -14.41 152.80 994 37 995 40 995
SP 21:00:00 TS -14.45 153.03 994 38 994 40 994
SP 23:00:00 TS -14.49 153.21 994 994 39 994 40 994
SP 1964-01-28 00:00:00 TS -14.51 153.32 994 40 994 40 994
SP 03:00:00 TS -14.59 153.73 994 40 994 40 994
SP 06:00:00 TS -14.70 154.22 994 994 40 994 40 994
SP 09:00:00 TS -14.82 154.76 994 40 994 40 994
SP 11:00:00 TS -14.91 155.12 994 994 40 994 40 994
SP 12:00:00 TS -14.97 155.29 993 40 994 40 994
SP 15:00:00 TS -15.15 155.72 993 41 993 40 993
SP 18:00:00 TS -15.36 156.11 992 42 993 40 993
SP 21:00:00 TS -15.57 156.49 992 43 992 42 992
SP 23:00:00 TS -15.71 156.74 992 992 44 992 44 992
SP 1964-01-29 00:00:00 TS -15.77 156.88 992 45 992 45 992
SP 03:00:00 TS -15.93 157.34 992 45 992 45 992
SP 06:00:00 TS -16.09 157.79 992 45 992 45 992
SP 09:00:00 TS -16.28 158.23 992 45 992 45 992
SP 11:00:00 TS -16.41 158.50 992 992 45 992 45 992
SP 12:00:00 TS -16.47 158.63 992 45 992 45 992
SP 15:00:00 TS -16.67 159.01 992 45 992 45 992
SP 18:00:00 TS -16.88 159.35 992 45 992 45 992
SP 21:00:00 TS -17.10 159.68 992 45 992 45 992
SP 23:00:00 TS -17.25 159.87 992 992 45 992 45 992
SP 1964-01-30 00:00:00 TS -17.32 159.96 992 45 992 45 992
SP 03:00:00 TS -17.52 160.20 992 45 992 45 992
SP 06:00:00 TS -17.72 160.40 992 45 992 45 992
SP 09:00:00 TS -17.92 160.60 992 45 992 45 992
SP 11:00:00 TS -18.05 160.71 992 992 45 992 45 992
SP 12:00:00 TS -18.12 160.77 992 45 992 45 992
SP 15:00:00 TS -18.35 160.91 992 45 992 45 992
SP 18:00:00 TS -18.58 161.03 992 45 992 45 992
SP 21:00:00 TS -18.80 161.18 992 45 992 45 992
SP 23:00:00 TS -18.95 161.28 992 992 45 992 45 992
SP 1964-01-31 00:00:00 TS -19.03 161.34 992 45 992 45 992
SP 03:00:00 TS -19.25 161.50 992 45 992 45 992
SP 06:00:00 TS -19.47 161.66 992 45 992 45 992
SP 09:00:00 TS -19.70 161.82 992 45 992 45 992
SP 11:00:00 TS -19.85 161.91 992 992 45 992 45 992
SP 12:00:00 TS -19.92 161.94 992 45 992 45 992
SP 15:00:00 TS -20.11 162.04 992 45 992
SP 18:00:00 TS -20.31 162.10 992 45 992
SP 21:00:00 TS -20.54 162.13 992 45 992
SP 23:00:00 TS -20.74 162.14 992 992 45 992
SP 1964-02-01 00:00:00 TS -20.86 162.15 992 45 992
SP 03:00:00 TS -21.30 162.18 992 45 992
SP 06:00:00 TS -21.81 162.20 992 45 992
SP 09:00:00 TS -22.31 162.22 992 45 992
SP 11:00:00 TS -22.65 162.23 992 992 45 992
SP 12:00:00 TS -22.81 162.24 992 45 992 45 992
SP 15:00:00 TS -23.32 162.26 993 42 993
SP 18:00:00 TS -23.82 162.27 994 40 994
SP 21:00:00 TS -24.32 162.29 995 37 995
SP 23:00:00 TS -24.66 162.30 996 996 35 995
SP 1964-02-02 00:00:00 TS -24.70 162.40 35 996

Source Information

Agency Information
USA bsh121964.txt
TOKYO
CMA
HKO
NEWDELHI
REUNION
BOM IDCKMSTM0S.csv:Line=3901:BERTHE
NADI
WELLINGTON
DS824 aus_area.dat:354:BERTHE
TD9636 cons_worldwide_trop_cyclone_18710101-19891231-006:Line=6794
TD9635
NEUMANN tracks.sh:Storm=97:BERTHA:BSH1264:BM331&NZeal634
MLC

All available IBTrACS Data

SEASON BASIN SUBBASIN ISO_TIME_________ NATURE LAT LON WMO PRES WMO AGENCY DIST2LAND LANDFALL IFLAG USA AGENCY USA ATCF_ID USA LAT USA LON USA SSHS BOM LAT BOM LON BOM PRES BOM PRES_METHOD DS824 LAT DS824 LON DS824 STAGE DS824 WIND DS824 PRES TD9636 LAT TD9636 LON TD9636 STAGE NEUMANN LAT NEUMANN LON NEUMANN CLASS NEUMANN WIND NEUMANN PRES STORM SPEED STORM DIR
Year degrees north degrees east mb km km degrees north degrees east 1 degrees north degrees east mb degrees north degrees east kts mb degrees north degrees east degrees north degrees east kts mb kts degrees
1964 SP EA 1964-01-26 23:00:00 NR -14.05 151.30 1000 bom 382 393 ______O___O___ -1 -14.00 151.30 1000 -14.10 151.30 1 6 96
1964 SP EA 1964-01-27 00:00:00 TS -14.06 151.41 395 395 O_____P__OP_O_ jtwc_sh SH121964 -14.10 151.40 -1 -14.03 151.39 999 -14.00 151.40 TC 30 1000 -14.12 151.39 1 -14.00 151.50 TC 30 1000 5 101
1964 SP EA 03:00:00 TS -14.12 151.67 406 406 P_____P__PP_P_ SH121964 -14.15 151.65 -1 -14.10 151.65 998 -14.08 151.67 TC 31 999 -14.18 151.66 1 -14.04 151.75 TC 32 999 5 103
1964 SP EA 06:00:00 TS -14.18 151.93 423 423 O_____P__PP_O_ jtwc_sh SH121964 -14.20 151.90 -1 -14.18 151.91 997 -14.15 151.93 TC 32 998 -14.24 151.92 1 -14.10 152.00 TC 35 998 5 104
1964 SP EA 09:00:00 TS -14.24 152.18 434 434 P_____P__PP_P_ SH121964 -14.25 152.16 -1 -14.25 152.15 996 -14.23 152.17 TC 33 997 -14.28 152.16 1 -14.20 152.26 TC 35 997 5 105
1964 SP EA 11:00:00 TS -14.29 152.33 996 bom 449 449 P_____O__PO_P_ SH121964 -14.28 152.32 -1 -14.30 152.30 996 -14.28 152.33 TC 34 996 -14.30 152.30 1 -14.27 152.42 TC 35 996 5 106
1964 SP EA 12:00:00 TS -14.31 152.41 453 453 O_____P__OP_O_ jtwc_sh SH121964 -14.30 152.40 -1 -14.32 152.37 995 -14.30 152.40 TC 35 996 -14.31 152.36 1 -14.30 152.50 TC 35 996 4 106
1964 SP EA 15:00:00 TS -14.36 152.60 472 472 P_____P__PP_P_ SH121964 -14.36 152.60 -1 -14.40 152.57 995 -14.37 152.60 TC 36 995 -14.32 152.54 1 -14.35 152.70 TC 37 995 4 105
1964 SP EA 18:00:00 TS -14.41 152.80 482 482 O_____P__PP_O_ jtwc_sh SH121964 -14.40 152.80 -1 -14.47 152.78 994 -14.44 152.81 TC 37 995 -14.34 152.74 1 -14.40 152.90 TC 40 995 4 103
1964 SP EA 21:00:00 TS -14.45 153.03 503 503 P_____P__PP_P_ SH121964 -14.39 153.00 -1 -14.55 153.02 994 -14.51 153.03 TC 38 994 -14.37 152.98 1 -14.49 153.13 TC 40 994 5 101
1964 SP EA 23:00:00 TS -14.49 153.21 994 bom 514 514 P_____O__PO_P_ SH121964 -14.39 153.18 -1 -14.60 153.20 994 -14.57 153.20 TC 39 994 -14.40 153.20 1 -14.56 153.30 TC 40 994 6 101
1964 SP EA 1964-01-28 00:00:00 TS -14.51 153.32 520 520 O_____P__OP_O_ jtwc_sh SH121964 -14.40 153.30 -1 -14.63 153.29 994 -14.60 153.30 TC 40 994 -14.42 153.34 1 -14.60 153.40 TC 40 994 8 102
1964 SP EA 03:00:00 TS -14.59 153.73 553 553 P_____P__PP_P_ SH121964 -14.48 153.81 -1 -14.70 153.59 994 -14.69 153.61 TC 40 994 -14.49 153.84 1 -14.70 153.71 TC 40 994 9 102
1964 SP EA 06:00:00 TS -14.70 154.22 994 bom 595 595 O_____O__OP_O_ jtwc_sh SH121964 -14.60 154.40 -1 -14.80 154.00 994 -14.80 154.00 TC 40 994 -14.58 154.39 1 -14.80 154.10 TC 40 994 10 103
1964 SP EA 09:00:00 TS -14.82 154.76 647 647 P_____P__PP_P_ SH121964 -14.73 154.92 -1 -14.91 154.59 994 -14.94 154.53 TC 40 994 -14.70 154.95 1 -14.89 154.64 TC 40 994 11 104
1964 SP EA 11:00:00 TS -14.91 155.12 994 bom 678 678 P_____O__PO_P_ SH121964 -14.84 155.25 -1 -15.00 155.00 994 -15.04 154.91 TC 40 994 -14.80 155.30 1 -14.96 155.02 TC 40 994 11 106
1964 SP EA 12:00:00 TS -14.97 155.29 701 701 O_____P__OP_O_ jtwc_sh SH121964 -14.90 155.40 -1 -15.05 155.18 993 -15.10 155.10 TC 40 994 -14.85 155.44 1 -15.00 155.20 TC 40 994 9 113
1964 SP EA 15:00:00 TS -15.15 155.72 747 735 P_____P__PP_P_ SH121964 -15.09 155.82 -1 -15.23 155.65 993 -15.28 155.57 TC 41 993 -15.04 155.83 1 -15.18 155.62 TC 40 993 9 116
1964 SP EA 18:00:00 TS -15.36 156.11 744 733 O_____P__PP_O_ jtwc_sh SH121964 -15.30 156.20 -1 -15.44 156.06 992 -15.49 156.00 TC 42 993 -15.25 156.19 1 -15.40 156.00 TC 40 993 9 119
1964 SP EA 21:00:00 TS -15.57 156.49 741 736 P_____P__PP_P_ SH121964 -15.51 156.54 -1 -15.66 156.44 992 -15.70 156.40 TC 43 992 -15.46 156.55 1 -15.61 156.45 TC 42 992 8 119
1964 SP EA 23:00:00 TS -15.71 156.74 992 bom 741 736 P_____O__PO_P_ SH121964 -15.64 156.77 -1 -15.80 156.70 992 -15.83 156.67 TC 44 992 -15.60 156.80 1 -15.74 156.75 TC 44 992 9 117
1964 SP EA 1964-01-29 00:00:00 TS -15.77 156.88 741 732 O_____P__OP_O_ jtwc_sh SH121964 -15.70 156.90 -1 -15.86 156.85 992 -15.90 156.80 TC 45 992 -15.66 156.94 1 -15.80 156.90 TC 45 992 9 111
1964 SP EA 03:00:00 TS -15.93 157.34 734 730 P_____P__PP_P_ SH121964 -15.85 157.39 -1 -16.04 157.29 992 -16.08 157.24 TC 45 992 -15.83 157.40 1 -15.95 157.30 TC 45 992 9 110
1964 SP EA 06:00:00 TS -16.09 157.79 734 719 O_____P__PP_O_ jtwc_sh SH121964 -16.00 157.90 -1 -16.21 157.72 992 -16.25 157.68 TC 45 992 -16.00 157.86 1 -16.10 157.70 TC 45 992 9 112
1964 SP EA 09:00:00 TS -16.28 158.23 728 717 P_____P__PP_P_ SH121964 -16.19 158.32 -1 -16.38 158.14 992 -16.42 158.10 TC 45 992 -16.17 158.32 1 -16.29 158.16 TC 45 992 9 115
1964 SP EA 11:00:00 TS -16.41 158.50 992 bom 721 710 P_____O__PO_P_ SH121964 -16.33 158.57 -1 -16.50 158.40 992 -16.54 158.37 TC 45 992 -16.30 158.60 1 -16.43 158.46 TC 45 992 9 117
1964 SP EA 12:00:00 TS -16.47 158.63 710 663 O_____P__OP_O_ jtwc_sh SH121964 -16.40 158.70 -1 -16.56 158.53 992 -16.60 158.50 TC 45 992 -16.37 158.74 1 -16.50 158.60 TC 45 992 8 119
1964 SP EA 15:00:00 TS -16.67 159.01 663 624 P_____P__PP_P_ SH121964 -16.59 159.12 -1 -16.76 158.89 992 -16.79 158.87 TC 45 992 -16.59 159.13 1 -16.70 158.92 TC 45 992 8 120
1964 SP EA 18:00:00 TS -16.88 159.35 616 577 O_____P__PP_O_ jtwc_sh SH121964 -16.80 159.50 -1 -16.96 159.22 992 -16.99 159.21 TC 45 992 -16.82 159.49 1 -16.90 159.20 TC 45 992 8 124
1964 SP EA 21:00:00 TS -17.10 159.68 577 553 P_____P__PP_P_ SH121964 -17.05 159.83 -1 -17.16 159.52 992 -17.20 159.52 TC 45 992 -17.05 159.81 1 -17.10 159.56 TC 45 992 7 127
1964 SP EA 23:00:00 TS -17.25 159.87 992 bom 546 546 P_____O__PO_P_ SH121964 -17.22 160.02 -1 -17.30 159.70 992 -17.33 159.71 TC 45 992 -17.20 160.00 1 -17.23 159.80 TC 45 992 7 129
1964 SP EA 1964-01-30 00:00:00 TS -17.32 159.96 538 507 O_____P__OP_O_ jtwc_sh SH121964 -17.30 160.10 -1 -17.37 159.79 992 -17.40 159.80 TC 45 992 -17.27 160.09 1 -17.30 159.90 TC 45 992 6 131
1964 SP MM 03:00:00 TS -17.52 160.20 507 477 P_____P__PP_P_ SH121964 -17.51 160.32 -1 -17.57 160.04 992 -17.60 160.07 TC 45 992 -17.46 160.34 1 -17.50 160.12 TC 45 992 6 134
1964 SP MM 06:00:00 TS -17.72 160.40 477 446 O_____P__PP_O_ jtwc_sh SH121964 -17.70 160.50 -1 -17.77 160.27 992 -17.81 160.30 TC 45 992 -17.65 160.54 1 -17.70 160.30 TC 45 992 5 136
1964 SP MM 09:00:00 TS -17.92 160.60 446 431 P_____P__PP_P_ SH121964 -17.88 160.67 -1 -17.97 160.47 992 -18.01 160.51 TC 45 992 -17.85 160.71 1 -17.91 160.56 TC 45 992 5 138
1964 SP MM 11:00:00 TS -18.05 160.71 992 bom 425 416 P_____O__PO_P_ SH121964 -18.02 160.76 -1 -18.10 160.60 992 -18.14 160.64 TC 45 992 -18.00 160.80 2 -18.04 160.73 TC 45 992 5 142
1964 SP MM 12:00:00 TS -18.12 160.77 416 394 O_____P__OP_O_ jtwc_sh SH121964 -18.10 160.80 -1 -18.16 160.67 992 -18.20 160.70 TC 45 992 -18.09 160.84 2 -18.10 160.80 TC 45 992 5 148
1964 SP MM 15:00:00 TS -18.35 160.91 394 367 P_____P__PP_P_ SH121964 -18.39 160.90 -1 -18.32 160.86 992 -18.37 160.88 TC 45 992 -18.36 160.94 2 -18.25 160.96 TC 45 992 5 151
1964 SP MM 18:00:00 TS -18.58 161.03 367 337 O_____P__PP_O_ jtwc_sh SH121964 -18.70 161.00 -1 -18.49 161.04 992 -18.53 161.03 TC 45 992 -18.65 161.03 2 -18.40 161.10 TC 45 992 5 151
1964 SP MM 21:00:00 TS -18.80 161.18 337 323 P_____P__PP_P_ SH121964 -18.96 161.14 -1 -18.67 161.20 992 -18.71 161.17 TC 45 992 -18.93 161.12 2 -18.59 161.31 TC 45 992 5 148
1964 SP MM 23:00:00 TS -18.95 161.28 992 bom 317 317 P_____O__PO_P_ SH121964 -19.12 161.24 -1 -18.80 161.30 992 -18.83 161.26 TC 45 992 -19.10 161.20 1 -18.73 161.44 TC 45 992 5 146
1964 SP MM 1964-01-31 00:00:00 TS -19.03 161.34 317 289 O_____P__OP_O_ jtwc_sh SH121964 -19.20 161.30 -1 -18.87 161.35 992 -18.90 161.30 TC 45 992 -19.18 161.26 1 -18.80 161.50 TC 45 992 5 145
1964 SP MM 03:00:00 TS -19.25 161.50 289 256 P_____P__PP_P_ SH121964 -19.41 161.50 -1 -19.12 161.50 992 -19.12 161.44 TC 45 992 -19.39 161.47 1 -19.04 161.61 TC 45 992 5 145
1964 SP MM 06:00:00 TS -19.47 161.66 256 239 O_____P__PP_O_ jtwc_sh SH121964 -19.60 161.70 -1 -19.37 161.63 992 -19.36 161.57 TC 45 992 -19.59 161.69 1 -19.30 161.70 TC 45 992 5 147
1964 SP MM 09:00:00 TS -19.70 161.82 239 226 P_____P__PP_P_ SH121964 -19.81 161.87 -1 -19.63 161.74 992 -19.62 161.69 TC 45 992 -19.77 161.89 1 -19.56 161.86 TC 45 992 5 149
1964 SP MM 11:00:00 TS -19.85 161.91 992 bom 223 223 P_____O__PO_P_ SH121964 -19.94 161.96 -1 -19.80 161.80 992 -19.80 161.77 TC 45 992 -19.90 162.00 1 -19.72 161.96 TC 45 992 5 152
1964 SP MM 12:00:00 TS -19.92 161.94 223 209 O_____P__OP_O_ jtwc_sh SH121964 -20.00 162.00 -1 -19.87 161.83 992 -19.90 161.80 TC 45 992 -19.95 162.04 1 -19.80 162.00 TC 45 992 4 155
1964 SP MM 15:00:00 TS -20.11 162.04 209 198 P_____P__PP_P_ SH121964 -20.14 162.12 -1 -20.06 161.89 992 -20.20 161.89 TC -20.10 162.13 1 -20.00 162.07 TC 45 992 4 160
1964 SP MM 18:00:00 TS -20.31 162.10 198 198 O_____P__PP_O_ jtwc_sh SH121964 -20.30 162.20 -1 -20.26 161.94 992 -20.53 161.96 TC -20.26 162.17 1 -20.20 162.10 TC 45 992 4 168
1964 SP MM 21:00:00 TS -20.54 162.13 199 199 P_____P__PP_P_ SH121964 -20.49 162.22 -1 -20.50 161.97 992 -20.86 162.02 TC -20.49 162.19 1 -20.41 162.15 TC 45 992 5 176
1964 SP MM 23:00:00 TS -20.74 162.14 992 bom 202 202 P_____O__PO_P_ SH121964 -20.68 162.21 -1 -20.70 162.00 992 4 -21.10 162.06 TC -20.70 162.20 1 -20.59 162.18 TC 45 992 6 177
1964 SP MM 1964-02-01 00:00:00 TS -20.86 162.15 208 198 O_____P__PP_O_ jtwc_sh SH121964 -20.80 162.20 -1 -20.81 162.02 992 -21.22 162.07 TC -20.83 162.21 1 -20.70 162.20 TC 45 992 8 177
1964 SP MM 03:00:00 TS -21.30 162.18 217 217 P_____P__PP_P_ SH121964 -21.31 162.20 -1 -21.21 162.08 992 -21.58 162.11 TC -21.30 162.22 1 -21.12 162.25 TC 45 992 10 178
1964 SP MM 06:00:00 TS -21.81 162.20 251 251 O_____P__PP_O_ jtwc_sh SH121964 -21.90 162.20 -1 -21.66 162.13 992 -21.95 162.14 TC -21.84 162.21 1 -21.60 162.30 TC 45 992 10 178
1964 SP MM 09:00:00 TS -22.31 162.22 282 282 P_____P__PP_P_ SH121964 -22.46 162.20 -1 -22.15 162.18 992 -22.32 162.17 TC -22.42 162.21 1 -22.04 162.36 TC 45 992 10 177
1964 SP MM 11:00:00 TS -22.65 162.23 992 bom 303 303 P_____O__PO_P_ SH121964 -22.82 162.20 -1 -22.50 162.20 992 -22.57 162.19 TC -22.80 162.20 1 -22.34 162.39 TC 45 992 10 179
1964 SP MM 12:00:00 TS -22.81 162.24 318 318 O_____P__OP_O_ jtwc_sh SH121964 -23.00 162.20 -1 -22.68 162.21 992 -22.70 162.20 TC 45 992 -22.99 162.20 1 -22.50 162.40 TC 45 992 10 0
1964 SP MM 15:00:00 TS -23.32 162.26 341 341 P_____P___P_P_ SH121964 -23.51 162.20 -1 -23.22 162.22 993 TC -23.53 162.19 1 -23.03 162.41 TC 42 993 10 179
1964 SP MM 18:00:00 TS -23.82 162.27 378 378 O_____P___P_O_ jtwc_sh SH121964 -24.00 162.20 -1 -23.77 162.22 994 TC -24.05 162.20 1 -23.60 162.40 TC 40 994 10 177
1964 SP MM 21:00:00 TS -24.32 162.29 419 419 ______P___P_P_ SH121964 -1 -24.33 162.21 995 TC -24.56 162.20 1 -24.15 162.40 TC 37 995 10 179
1964 SP MM 23:00:00 TS -24.66 162.30 996 bom 454 448 ______O___O_P_ SH121964 -1 -24.70 162.20 996 TC -24.90 162.20 1 -24.52 162.40 TC 35 995 8 165
1964 SP MM 1964-02-02 00:00:00 TS -24.70 162.40 448 ____________O_ -1 TC 1 -24.70 162.40 TC 35 996 6 115